Weather at Spitzerberg Airfield

Public forecast

Using degrees Celsius for public forecast. Weather courtesy of forecast.io.

Closest aviation weather report (METAR) to Spitzerberg Airfield

Closest report is M. R. Štefánik Airport, 12.0 nm (22.2 km) ENE. Retrieved 2022/01/21 20:30 UTC (3 minutes ago):

LZIB 212030Z 27012KT CAVOK 00/M05 Q1024 NOSIG

Closest aviation forecast (TAF) to Spitzerberg Airfield

Closest forecast is M. R. Štefánik Airport, 12.0 nm (22.2 km) ENE. Retrieved 2022/01/21 18:00 UTC (3 hours ago):

TAF LZIB 211700Z 2118/2218 30012KT 9999 SCT035 TEMPO 2118/2210 32015G25KT TEMPO 2203/2207 2500 -SN SCT015 OVC025 PROB40 TEMPO 2203/2207 1300 SN BKN012